createdAt,value
2022-10-23T00:00:58.957Z,11.70
2022-10-23T00:03:40.138Z,11.20
2022-10-23T00:06:14.817Z,10.68
2022-10-23T00:08:48.938Z,10.95
2022-10-23T00:11:24.397Z,11.15
2022-10-23T00:13:59.137Z,11.88
2022-10-23T00:16:32.303Z,12.23
2022-10-23T00:19:04.698Z,12.45
2022-10-23T00:21:39.677Z,13.10
2022-10-23T00:24:12.712Z,12.77
2022-10-23T00:26:45.118Z,13.02
2022-10-23T00:29:17.426Z,12.65
2022-10-23T00:31:49.319Z,13.43
2022-10-23T00:34:21.697Z,13.10
2022-10-23T00:36:56.118Z,12.23
2022-10-23T00:39:28.599Z,11.95
2022-10-23T00:42:00.456Z,11.63
2022-10-23T00:45:05.523Z,12.02
2022-10-23T00:47:37.437Z,11.05
2022-10-23T00:50:10.546Z,10.88
2022-10-23T00:52:50.078Z,10.63
2022-10-23T00:55:24.537Z,11.35
2022-10-23T00:57:56.960Z,10.45
2022-10-23T01:00:45.620Z,10.27
2022-10-23T01:03:18.904Z,9.85
2022-10-23T01:05:56.698Z,10.02
2022-10-23T01:08:38.938Z,9.38
2022-10-23T01:11:16.376Z,9.88
2022-10-23T01:13:57.857Z,9.88
2022-10-23T01:16:37.929Z,10.25
2022-10-23T01:19:18.037Z,10.30
2022-10-23T01:21:58.956Z,10.00
2022-10-23T01:24:51.877Z,10.07
2022-10-23T01:27:30.141Z,10.02
2022-10-23T01:30:09.277Z,10.63
2022-10-23T01:32:51.017Z,10.25
2022-10-23T01:35:26.479Z,10.35
2022-10-23T01:38:04.718Z,10.60
2022-10-23T01:40:41.298Z,10.70
2022-10-23T01:43:21.298Z,10.07
2022-10-23T01:45:58.358Z,10.63
2022-10-23T01:48:33.518Z,10.68
2022-10-23T01:51:09.558Z,10.43
2022-10-23T01:53:46.876Z,10.48
2022-10-23T01:56:23.416Z,10.13
2022-10-23T01:59:02.138Z,10.20
2022-10-23T02:01:38.197Z,10.18
2022-10-23T02:04:13.977Z,10.25
2022-10-23T02:06:46.338Z,10.38
2022-10-23T02:09:18.897Z,9.85
2022-10-23T02:11:57.778Z,9.80
2022-10-23T02:14:52.439Z,10.07
2022-10-23T02:17:33.545Z,9.45
2022-10-23T02:20:17.197Z,9.93
2022-10-23T02:22:59.117Z,9.07
2022-10-23T02:25:38.404Z,9.27
2022-10-23T02:28:18.436Z,9.30
2022-10-23T02:30:53.878Z,9.95
2022-10-23T02:33:27.717Z,9.07
2022-10-23T02:36:00.376Z,9.80
2022-10-23T02:38:40.858Z,10.20
2022-10-23T02:41:41.618Z,10.30
2022-10-23T02:44:28.778Z,10.82
2022-10-23T02:47:19.538Z,10.88
2022-10-23T02:50:00.917Z,10.68
2022-10-23T02:52:40.518Z,10.57
2022-10-23T02:55:25.379Z,10.90
2022-10-23T02:58:10.659Z,11.13
2022-10-23T03:00:49.598Z,11.57
2022-10-23T03:03:30.439Z,11.90
2022-10-23T03:06:02.739Z,12.13
2022-10-23T03:08:44.878Z,13.10
2022-10-23T03:11:17.159Z,11.75
2022-10-23T03:13:49.657Z,11.70
2022-10-23T03:16:21.897Z,11.60
2022-10-23T03:18:57.057Z,12.80
2022-10-23T03:21:29.059Z,12.70
2022-10-23T03:24:01.539Z,11.73
2022-10-23T03:26:33.618Z,12.23
2022-10-23T03:29:06.218Z,12.40
2022-10-23T03:31:38.376Z,12.57
2022-10-23T03:34:15.259Z,12.75
2022-10-23T03:36:47.436Z,13.27
2022-10-23T03:39:20.657Z,12.30
2022-10-23T03:41:52.683Z,13.13
2022-10-23T03:44:25.059Z,12.88
2022-10-23T03:46:57.298Z,13.00
2022-10-23T03:49:32.538Z,14.65
2022-10-23T03:52:04.820Z,12.90
2022-10-23T03:54:37.418Z,14.52
2022-10-23T03:57:09.438Z,13.70
2022-10-23T03:59:41.937Z,14.15
2022-10-23T04:02:14.221Z,15.23
2022-10-23T04:04:51.179Z,14.10
2022-10-23T04:07:23.099Z,13.50
2022-10-23T04:09:55.239Z,14.55
2022-10-23T04:12:27.598Z,14.00
2022-10-23T04:15:00.083Z,14.55
2022-10-23T04:17:32.202Z,14.93
2022-10-23T04:20:07.406Z,15.50
2022-10-23T04:22:39.159Z,15.85
2022-10-23T04:25:27.658Z,14.63
2022-10-23T04:28:11.618Z,14.32
2022-10-23T04:30:43.621Z,14.63
2022-10-23T04:33:15.417Z,16.00
2022-10-23T04:35:50.378Z,15.45
2022-10-23T04:38:22.277Z,15.38
2022-10-23T04:40:54.318Z,15.52
2022-10-23T04:43:25.987Z,16.95
2022-10-23T04:45:58.198Z,16.65
2022-10-23T04:48:29.838Z,16.48
2022-10-23T04:51:07.317Z,15.88
2022-10-23T04:53:39.598Z,17.00
2022-10-23T04:56:16.358Z,17.38
2022-10-23T04:58:48.139Z,16.40
2022-10-23T05:01:20.397Z,16.10
2022-10-23T05:03:54.337Z,16.45
2022-10-23T05:06:29.125Z,16.10
2022-10-23T05:09:00.938Z,17.15
2022-10-23T05:11:33.217Z,17.98
2022-10-23T05:14:05.117Z,18.27
2022-10-23T05:16:42.798Z,16.92
2022-10-23T05:19:24.270Z,17.88
2022-10-23T05:22:00.117Z,17.90
2022-10-23T05:24:32.298Z,17.15
2022-10-23T05:27:04.399Z,18.42
2022-10-23T05:29:36.318Z,18.27
2022-10-23T05:32:11.257Z,17.52
2022-10-23T05:34:43.858Z,17.85
2022-10-23T05:37:20.299Z,17.10
2022-10-23T05:39:52.358Z,17.13
2022-10-23T05:42:24.298Z,16.65
2022-10-23T05:44:58.256Z,16.38
2022-10-23T05:47:31.856Z,16.25
2022-10-23T05:50:03.479Z,17.05
2022-10-23T05:52:38.317Z,17.73
2022-10-23T05:55:10.898Z,17.42
2022-10-23T05:57:43.221Z,16.55
2022-10-23T06:00:16.376Z,16.42
2022-10-23T06:02:48.759Z,18.33
2022-10-23T06:05:20.929Z,18.15
2022-10-23T06:07:56.178Z,17.00
2022-10-23T06:10:28.525Z,16.08
2022-10-23T06:13:01.079Z,17.77
2022-10-23T06:15:33.140Z,16.67
2022-10-23T06:18:05.638Z,16.40
2022-10-23T06:20:40.398Z,15.68
2022-10-23T06:23:15.517Z,16.10
2022-10-23T06:26:02.958Z,16.67
2022-10-23T06:28:35.417Z,15.77
2022-10-23T06:31:09.079Z,15.75
2022-10-23T06:33:41.967Z,16.92
2022-10-23T06:36:14.298Z,16.17
2022-10-23T06:38:49.855Z,15.88
2022-10-23T06:41:24.520Z,15.80
2022-10-23T06:43:56.919Z,17.20
2022-10-23T06:46:33.336Z,16.27
2022-10-23T06:49:05.858Z,16.85
2022-10-23T06:51:38.098Z,16.15
2022-10-23T06:54:14.737Z,15.10
2022-10-23T06:56:47.037Z,15.32
2022-10-23T06:59:19.818Z,15.27
2022-10-23T07:01:52.140Z,15.32
2022-10-23T07:04:24.598Z,15.43
2022-10-23T07:06:59.118Z,14.93
2022-10-23T07:09:34.519Z,14.77
2022-10-23T07:12:06.901Z,14.18
2022-10-23T07:14:39.457Z,14.75
2022-10-23T07:17:11.577Z,15.07
2022-10-23T07:19:43.978Z,14.00
2022-10-23T07:22:16.316Z,14.38
2022-10-23T07:24:51.717Z,14.38
2022-10-23T07:27:23.799Z,14.75
2022-10-23T07:29:56.643Z,14.52
2022-10-23T07:32:28.919Z,13.60
2022-10-23T07:35:02.454Z,14.27
2022-10-23T07:37:34.698Z,13.13
2022-10-23T07:40:12.579Z,13.60
2022-10-23T07:42:44.938Z,12.25
2022-10-23T07:45:50.919Z,13.15
2022-10-23T07:48:24.281Z,12.43
2022-10-23T07:50:57.217Z,11.65
2022-10-23T07:53:30.178Z,11.73
2022-10-23T07:56:07.717Z,11.45
2022-10-23T07:58:39.858Z,11.13
2022-10-23T08:01:20.979Z,10.85
2022-10-23T08:03:53.098Z,11.02
2022-10-23T08:06:25.799Z,11.10
2022-10-23T08:08:59.920Z,11.35
2022-10-23T08:11:38.480Z,10.73
2022-10-23T08:14:11.476Z,10.13
2022-10-23T08:16:44.220Z,10.45
2022-10-23T08:19:16.757Z,10.15
2022-10-23T08:21:49.338Z,9.75
2022-10-23T08:24:21.597Z,10.13
2022-10-23T08:26:56.918Z,10.50
2022-10-23T08:29:29.197Z,10.65
2022-10-23T08:32:01.717Z,9.90
2022-10-23T08:34:53.196Z,9.48
2022-10-23T08:37:25.846Z,8.18
2022-10-23T08:39:58.459Z,7.90
2022-10-23T08:42:33.759Z,7.35
2022-10-23T08:45:14.943Z,7.72
2022-10-23T08:47:51.638Z,7.72
2022-10-23T08:53:28.597Z,5.50
2022-10-23T08:56:05.478Z,5.90
2022-10-23T08:58:46.741Z,5.65
2022-10-23T09:01:34.858Z,5.47
2022-10-23T09:04:32.039Z,4.75
2022-10-23T09:07:13.580Z,4.88
2022-10-23T09:09:58.496Z,4.50
2022-10-23T09:12:34.339Z,5.28
2022-10-23T09:15:18.358Z,4.78
2022-10-23T09:17:59.938Z,5.70
2022-10-23T09:20:37.837Z,5.63
2022-10-23T09:23:17.999Z,4.43
2022-10-23T09:25:57.280Z,4.95
2022-10-23T09:29:22.238Z,5.32
2022-10-23T09:32:43.382Z,5.35
2022-10-23T09:35:24.859Z,5.43
2022-10-23T09:38:23.640Z,4.78
2022-10-23T09:40:56.819Z,5.03
2022-10-23T09:43:29.738Z,4.75
2022-10-23T09:46:05.597Z,4.93
2022-10-23T09:48:45.538Z,4.88
2022-10-23T09:51:22.158Z,4.72
2022-10-23T09:53:57.645Z,4.00
2022-10-23T09:56:34.179Z,4.38
2022-10-23T09:59:09.957Z,4.45
2022-10-23T10:01:51.684Z,4.40
2022-10-23T10:04:35.639Z,3.72
2022-10-23T10:07:19.198Z,3.75
2022-10-23T10:09:52.645Z,4.55
2022-10-23T10:12:42.388Z,3.40
2022-10-23T10:15:23.520Z,3.08
2022-10-23T10:18:08.478Z,3.20
2022-10-23T10:21:05.795Z,3.30
2022-10-23T10:23:49.328Z,3.15
2022-10-23T10:26:34.231Z,2.80
2022-10-23T10:29:19.870Z,3.28
2022-10-23T10:32:02.549Z,3.17
2022-10-23T10:34:43.330Z,2.50
2022-10-23T10:37:43.895Z,2.80
2022-10-23T10:40:28.066Z,2.60
2022-10-23T10:43:19.743Z,2.50
2022-10-23T10:45:56.804Z,2.53
2022-10-23T10:48:50.564Z,3.25
2022-10-23T10:51:31.665Z,2.42
2022-10-23T10:54:27.272Z,2.80
2022-10-23T10:57:02.987Z,3.28
2022-10-23T10:59:42.925Z,3.00
2022-10-23T11:02:29.263Z,2.83
2022-10-23T11:05:09.323Z,2.92
2022-10-23T11:07:46.562Z,3.20
2022-10-23T11:10:23.102Z,3.00
2022-10-23T11:12:55.729Z,2.95
2022-10-23T11:15:32.522Z,3.35
2022-10-23T11:18:10.044Z,3.13
2022-10-23T11:21:09.225Z,3.00
2022-10-23T11:24:01.169Z,2.90
2022-10-23T11:26:51.730Z,2.92
2022-10-23T11:29:47.944Z,2.70
2022-10-23T11:32:53.144Z,2.50
2022-10-23T11:35:42.096Z,3.03
2022-10-23T11:38:21.635Z,2.53
2022-10-23T11:40:57.110Z,2.47
2022-10-23T11:43:34.635Z,3.10
2022-10-23T11:46:32.914Z,2.67
2022-10-23T11:49:06.638Z,2.60
2022-10-23T11:52:05.354Z,2.60
2022-10-23T11:55:06.075Z,2.75
2022-10-23T11:57:38.277Z,2.40
2022-10-23T12:00:28.057Z,2.35
2022-10-23T12:03:25.493Z,2.80
2022-10-23T12:06:05.137Z,3.10
2022-10-23T12:08:41.876Z,2.65
2022-10-23T12:11:33.263Z,2.33
2022-10-23T12:14:05.619Z,2.33
2022-10-23T12:16:43.422Z,2.30
2022-10-23T12:19:24.197Z,2.50
2022-10-23T12:22:00.601Z,2.88
2022-10-23T12:24:47.455Z,2.72
2022-10-23T12:27:36.757Z,2.60
2022-10-23T12:30:22.874Z,2.03
2022-10-23T12:33:12.916Z,2.97
2022-10-23T12:36:12.976Z,2.17
2022-10-23T12:38:50.337Z,2.08
2022-10-23T12:41:27.763Z,1.90
2022-10-23T12:44:02.696Z,2.20
2022-10-23T12:46:39.176Z,1.83
2022-10-23T12:49:21.341Z,2.30
2022-10-23T12:52:00.060Z,2.20
2022-10-23T12:54:34.514Z,1.92
2022-10-23T12:57:24.235Z,2.30
2022-10-23T13:00:02.659Z,1.95
2022-10-23T13:02:37.829Z,2.10
2022-10-23T13:05:17.737Z,2.47
2022-10-23T13:07:52.657Z,2.47
2022-10-23T13:10:27.431Z,2.55
2022-10-23T13:13:05.899Z,2.55
2022-10-23T13:15:42.997Z,3.15
2022-10-23T13:18:32.494Z,3.05
2022-10-23T13:21:08.175Z,3.10
2022-10-23T13:23:43.816Z,2.75
2022-10-23T13:26:29.175Z,2.90
2022-10-23T13:29:08.750Z,3.17
2022-10-23T13:31:41.834Z,3.22
2022-10-23T13:34:29.175Z,2.70
2022-10-23T13:37:23.474Z,3.13
2022-10-23T13:40:08.077Z,3.00
2022-10-23T13:42:40.322Z,3.10
2022-10-23T13:45:21.850Z,3.33
2022-10-23T13:47:56.393Z,3.30
2022-10-23T13:50:29.144Z,3.15
2022-10-23T13:53:06.151Z,3.03
2022-10-23T13:55:39.733Z,2.78
2022-10-23T13:58:12.653Z,2.95
2022-10-23T14:00:46.111Z,3.00
2022-10-23T14:03:19.111Z,2.63
2022-10-23T14:05:51.670Z,2.30
2022-10-23T14:08:26.476Z,2.65
2022-10-23T14:10:58.870Z,2.45
2022-10-23T14:13:32.290Z,2.75
2022-10-23T14:16:04.890Z,2.83
2022-10-23T14:18:37.511Z,2.47
2022-10-23T14:21:11.752Z,3.20
2022-10-23T14:23:48.553Z,3.25
2022-10-23T14:26:33.133Z,2.88
2022-10-23T14:29:17.791Z,4.03
2022-10-23T14:31:53.757Z,2.85
2022-10-23T14:34:25.778Z,2.88
2022-10-23T14:37:08.038Z,2.85
2022-10-23T14:39:48.877Z,2.80
2022-10-23T14:42:22.152Z,2.35
2022-10-23T14:44:54.080Z,2.40
2022-10-23T14:47:26.451Z,2.40
2022-10-23T14:49:58.849Z,2.50
2022-10-23T14:52:31.430Z,2.70
2022-10-23T14:55:06.074Z,2.30
2022-10-23T14:57:38.250Z,2.50
2022-10-23T15:00:11.616Z,2.88
2022-10-23T15:02:44.092Z,2.47
2022-10-23T15:05:16.269Z,3.28
2022-10-23T15:07:48.627Z,3.25
2022-10-23T15:10:23.248Z,3.33
2022-10-23T15:12:55.426Z,4.93
2022-10-23T15:15:29.866Z,8.25
2022-10-23T15:18:06.926Z,4.35
2022-10-23T15:20:38.828Z,4.25
2022-10-23T15:23:11.047Z,3.85
2022-10-23T15:25:45.668Z,3.25
2022-10-23T15:28:17.870Z,3.05
2022-10-23T15:30:49.769Z,4.60
2022-10-23T15:33:22.168Z,3.42
2022-10-23T15:35:54.770Z,3.60
2022-10-23T15:38:27.515Z,4.35
2022-10-23T15:41:23.717Z,3.45
2022-10-23T15:43:55.850Z,3.70
2022-10-23T15:46:27.756Z,3.80
2022-10-23T15:49:00.336Z,3.40
2022-10-23T15:51:32.598Z,3.05
2022-10-23T15:54:04.816Z,3.42
2022-10-23T15:56:39.617Z,3.85
2022-10-23T15:59:11.955Z,3.70
2022-10-23T16:01:44.281Z,4.15
2022-10-23T16:04:33.699Z,3.50
2022-10-23T16:07:07.457Z,3.75
2022-10-23T16:09:40.036Z,4.18
2022-10-23T16:12:14.798Z,3.80
2022-10-23T16:14:47.078Z,3.83
2022-10-23T16:17:19.599Z,4.10
2022-10-23T16:19:51.964Z,3.72
2022-10-23T16:22:23.778Z,4.30
2022-10-23T16:24:55.905Z,3.85
2022-10-23T16:27:30.396Z,4.00
2022-10-23T16:30:02.537Z,4.28
2022-10-23T16:32:35.125Z,4.40
2022-10-23T16:35:09.821Z,4.93
2022-10-23T16:37:44.494Z,4.05
2022-10-23T16:40:20.036Z,4.45
2022-10-23T16:42:54.617Z,4.20
2022-10-23T16:45:27.177Z,4.93
2022-10-23T16:47:58.976Z,4.82
2022-10-23T16:50:31.272Z,4.70
2022-10-23T16:53:03.324Z,5.30
2022-10-23T16:55:35.738Z,5.38
2022-10-23T16:58:29.956Z,5.10
2022-10-23T17:01:04.156Z,4.78
2022-10-23T17:03:53.662Z,5.18
2022-10-23T17:06:29.145Z,5.35
2022-10-23T17:09:02.483Z,5.45
2022-10-23T17:11:37.820Z,5.70
2022-10-23T17:14:17.657Z,5.03
2022-10-23T17:16:52.123Z,5.50
2022-10-23T17:19:43.689Z,5.20
2022-10-23T17:22:17.616Z,5.15
2022-10-23T17:24:51.627Z,5.57
2022-10-23T17:27:26.296Z,5.13
2022-10-23T17:30:01.115Z,5.78
2022-10-23T17:32:33.264Z,5.72
2022-10-23T17:35:07.216Z,5.88
2022-10-23T17:37:39.517Z,5.88
2022-10-23T17:40:12.612Z,6.20
2022-10-23T17:43:04.632Z,5.28
2022-10-23T17:45:40.653Z,5.95
2022-10-23T17:48:12.934Z,5.90
2022-10-23T17:50:44.854Z,5.47
2022-10-23T17:53:26.332Z,5.80
2022-10-23T17:56:00.893Z,5.22
2022-10-23T17:58:33.032Z,4.93
2022-10-23T18:01:10.795Z,5.10
2022-10-23T18:03:43.272Z,5.68
2022-10-23T18:06:17.216Z,6.03
2022-10-23T18:08:49.638Z,5.20
2022-10-23T18:11:23.435Z,5.72
2022-10-23T18:13:55.681Z,5.47
2022-10-23T18:16:30.755Z,5.50
2022-10-23T18:19:03.379Z,5.35
2022-10-23T18:21:36.074Z,5.38
2022-10-23T18:24:08.681Z,5.20
2022-10-23T18:26:40.773Z,4.95
2022-10-23T18:29:15.195Z,5.47
2022-10-23T18:31:50.914Z,4.97
2022-10-23T18:34:25.334Z,5.57
2022-10-23T18:36:58.195Z,5.65
2022-10-23T18:39:30.556Z,5.68
2022-10-23T18:42:02.315Z,5.90
2022-10-23T18:44:34.154Z,5.70
2022-10-23T18:47:09.486Z,5.80
2022-10-23T18:49:41.454Z,5.90
2022-10-23T18:52:13.220Z,5.78
2022-10-23T18:54:45.220Z,5.60
2022-10-23T18:57:16.893Z,5.55
2022-10-23T18:59:50.514Z,5.57
2022-10-23T19:02:24.927Z,5.80
2022-10-23T19:04:57.220Z,5.43
2022-10-23T19:07:29.153Z,5.88
2022-10-23T19:10:00.880Z,5.25
2022-10-23T19:12:32.594Z,6.00
2022-10-23T19:15:04.417Z,5.25
2022-10-23T19:17:39.286Z,6.80
2022-10-23T19:20:17.293Z,5.53
2022-10-23T19:22:52.375Z,5.78
2022-10-23T19:25:28.330Z,6.10
2022-10-23T19:28:01.738Z,5.70
2022-10-23T19:30:40.975Z,5.50
2022-10-23T19:33:15.231Z,5.85
2022-10-23T19:35:47.214Z,5.97
2022-10-23T19:38:18.911Z,5.35
2022-10-23T19:40:51.370Z,5.18
2022-10-23T19:43:22.850Z,5.57
2022-10-23T19:45:54.940Z,5.32
2022-10-23T19:48:29.090Z,5.95
2022-10-23T19:51:01.090Z,5.85
2022-10-23T19:53:33.938Z,5.35
2022-10-23T19:56:07.997Z,5.70
2022-10-23T19:58:40.064Z,5.30
2022-10-23T20:01:14.815Z,5.60
2022-10-23T20:03:50.225Z,5.80
2022-10-23T20:06:24.528Z,6.10
2022-10-23T20:08:56.923Z,5.70
2022-10-23T20:11:30.845Z,6.13
2022-10-23T20:14:03.370Z,5.93
2022-10-23T20:16:37.538Z,6.25
2022-10-23T20:22:10.185Z,8.10
2022-10-23T20:24:42.526Z,6.32
2022-10-23T20:27:14.946Z,6.60
2022-10-23T20:29:46.565Z,6.47
2022-10-23T20:32:18.907Z,5.93
2022-10-23T20:34:53.046Z,7.43
2022-10-23T20:37:24.825Z,6.13
2022-10-23T20:39:58.248Z,6.15
2022-10-23T20:42:30.066Z,6.32
2022-10-23T20:45:01.633Z,6.72
2022-10-23T20:47:33.545Z,6.65
2022-10-23T20:50:08.784Z,6.25
2022-10-23T20:52:40.727Z,6.55
2022-10-23T20:55:13.205Z,6.63
2022-10-23T20:57:59.029Z,6.50
2022-10-23T21:00:30.644Z,6.45
2022-10-23T21:03:04.384Z,7.10
2022-10-23T21:05:38.486Z,6.97
2022-10-23T21:08:10.283Z,6.68
2022-10-23T21:10:48.507Z,6.97
2022-10-23T21:13:20.363Z,7.60
2022-10-23T21:15:51.945Z,7.38
2022-10-23T21:18:27.361Z,7.78
2022-10-23T21:21:08.505Z,7.13
2022-10-23T21:23:41.172Z,7.93
2022-10-23T21:26:12.989Z,7.07
2022-10-23T21:28:55.823Z,7.18
2022-10-23T21:31:32.696Z,8.23
2022-10-23T21:34:04.856Z,7.93
2022-10-23T21:36:48.503Z,7.32
2022-10-23T21:39:31.245Z,8.23
2022-10-23T21:42:02.864Z,7.85
2022-10-23T21:44:34.733Z,7.40
2022-10-23T21:47:06.366Z,8.00
2022-10-23T21:49:38.288Z,7.60
2022-10-23T21:52:15.037Z,7.82
2022-10-23T21:54:49.627Z,7.30
2022-10-23T21:57:21.226Z,8.20
2022-10-23T21:59:53.064Z,7.65
2022-10-23T22:02:24.659Z,8.40
2022-10-23T22:04:56.605Z,7.82
2022-10-23T22:07:31.108Z,8.45
2022-10-23T22:10:03.445Z,8.60
2022-10-23T22:12:35.464Z,7.45
2022-10-23T22:15:08.686Z,7.88
2022-10-23T22:17:40.712Z,8.10
2022-10-23T22:20:13.546Z,8.00
2022-10-23T22:22:48.125Z,8.50
2022-10-23T22:25:20.545Z,8.15
2022-10-23T22:27:52.604Z,8.05
2022-10-23T22:30:24.726Z,8.27
2022-10-23T22:32:56.565Z,8.27
2022-10-23T22:35:28.865Z,8.70
2022-10-23T22:38:04.765Z,8.70
2022-10-23T22:40:45.633Z,8.75
2022-10-23T22:43:18.411Z,9.10
2022-10-23T22:45:50.525Z,8.63
2022-10-23T22:48:22.325Z,9.05
2022-10-23T22:50:57.065Z,9.07
2022-10-23T22:53:31.646Z,8.63
2022-10-23T22:56:03.584Z,8.50
2022-10-23T22:58:35.125Z,9.45
2022-10-23T23:01:10.902Z,9.55
2022-10-23T23:03:42.526Z,8.93
2022-10-23T23:06:15.185Z,9.77
2022-10-23T23:08:50.945Z,10.02
2022-10-23T23:11:24.793Z,9.07
2022-10-23T23:13:56.490Z,9.05
2022-10-23T23:16:31.725Z,10.65
2022-10-23T23:19:05.068Z,10.63
2022-10-23T23:21:36.945Z,9.70
2022-10-23T23:24:11.284Z,10.50
2022-10-23T23:26:43.255Z,10.00
2022-10-23T23:29:15.787Z,10.75
2022-10-23T23:32:29.526Z,9.93
2022-10-23T23:35:02.571Z,10.07
2022-10-23T23:37:34.645Z,10.70
2022-10-23T23:40:09.966Z,10.25
2022-10-23T23:42:42.043Z,10.02
2022-10-23T23:45:15.134Z,11.02
2022-10-23T23:47:47.274Z,12.75
2022-10-23T23:50:19.366Z,12.65
2022-10-23T23:52:51.205Z,12.45
2022-10-23T23:55:25.446Z,13.43
2022-10-23T23:57:57.226Z,13.20
